Portland, Oregon
Traffic Map
Current Weather Conditions
Portland, Oregon
Clear
Clear
53°
Feels Like: 53°
Wind Chill: 53° Ceiling: Unl
Heat Index: 53° Visibility: 10mi
Dew Point: 48° Wind: 0mph
Humidity: 83% Direction: ° ()
Pressure: 30.11in Gusts: 0mph
Raw Report DataKPDX 230753Z 00000KT 10SM CLR 12/09 A3011 RMK AO2 SLP195 T01170089 402170111
Traffic Incident Summary
Active as of:
Severity:
Category:
InformationThere was an issue retrieving the traffic information for this location. Please try a different location or try again shortly.
Advertisements